Manamah, Bahrain

12:03 AM AST op 20 februari 2017 (GMT +0300)
North Jasrah | | Change Station

Hoogte 14 ft 26.15 °N, 50.47 °E | Updated 2 seconds ago

Helder
Helder
54.9 °F
Voelt als 54.9 °F
N
1.8
Wind Variabel Wind van NNO
Gusts 2.5 mijl/u

Vandaag
Hoog -- | Laag -- °F
--% Kans op neerslag
Gisteren
Hoog -- | Laag -- °F
Precip. -- inches
Druk 30.30 inches
Zicht -9999.0 mijlen
Wolken
Dauwpunt 26 °F
Vochtigheid 32%
Neerslag 0.00 inches
Dikte sneeuw Niet beschikbaar.
6:09 AM 5:33 PM
Laatste kwartier, 40% visible
METAR OEDF 192100Z 31007KT CAVOK 09/02 Q1026 NOSIG
Druk 30.30 inches
Zicht -9999.0 mijlen
Wolken
Dauwpunt 26 °F
Vochtigheid 32%
Neerslag 0.00 inches
Dikte sneeuw Niet beschikbaar.
6:09 AM 5:33 PM
Laatste kwartier, 40% visible
METAR OEDF 192100Z 31007KT CAVOK 09/02 Q1026 NOSIG

Get Your Daily Forecast Email!

Thanks for signing up!

Be on the lookout for a verification email in your inbox.

You'll start receiving the daily forecast at 8 AM.

×

10-Day Weather Forecast

No radar image for this location.
×

Almanac

Astronomie

Feb. 20, 2017 Opkomst Ondergang
Werkelijke tijd
Burgerlijke schemering
Nautische schemering
Astronomische schemering
Maan
Golflengte van het zichtbare licht
Daglengte
Tomorrow will be .
, % of the Moon is Illuminated

Extremen vandaag

Country Highs Country Lows

Community

WunderPhotos

Upload Photos

1,962,540 foto’s ge-upload!

WunderBlog® & News

Nearby

Luchtkwaliteit

  Luchtkwaliteit LK-index Verontreinigende stof
Not available.

Dikte sneeuw

Station Depth Geometrische hoogte

Aardbevingen

Stad Distance Mag. Time & Date
Minimum magnitude displayed is 2.5.

Watertemperatuur langs de kust

Plaats Temperatuur

Stations

Nabije weerstations

Locatie station Temp. Gevoelstemperatuur Dauwpunt Vochtigheid Wind Precip. Hoogte Geactualiseerd Type